KBGD/BGD METAR and TAF weather

Enter ICAO airport designator
Station Type Date Time Source
KBGD METAR 2018/10/16 20:51 UTC NOAA

KBGD 162051Z AUTO VRB03KT 10SM OVC060 15/M06 A3031 RMK AO2 SLP255 T01501061 56016


Station Type Date Time Source
KBGD Decoded METAR 2018/10/16 20:51 UTC NOAA

BORGER HUTCHINSON CO AIRPORT , TX, United States (KBGD) 35-42N 101-24W 927M
Oct 16, 2018 - 04:51 PM EDT / 2018.10.16 2051 UTC
Wind: Variable at 3 MPH (3 KT):0
Visibility: 10 mile(s):0
Sky conditions: overcast
Temperature: 59.0 F (15.0 C)
Dew Point: 21.0 F (-6.1 C)
Relative Humidity: 22%
Pressure (altimeter): 30.31 in. Hg (1026 hPa)
Pressure tendency: 0.05 inches (1.6 hPa) lower than three hours ago
ob: KBGD 162051Z AUTO VRB03KT 10SM OVC060 15/M06 A3031 RMK AO2 SLP255 T01501061 56016
cycle: 21

Station Type Date Time Source
KBGD TAF UTC NOAA

Error!


Example: see airport list